2005 CHAMBO (2004357S06095)


On this page: IBTrACS data - Map and Plots - Positions - Intensities - Original source data

Summary

Start Dec 21
End Jan 3
Basin SI
LMI 105 kt
Sources jtwc_sh
reunion
neumann
In WMO? Yes
Previous storm 2004 NORU (WP)
Previous in basin 2005 MISSING (SI)
Concurrent storms 2004 NORU (WP)
2005 CHAMBO (SI)
2005 JUDY (SP)
2005 RAYMOND (SI)
2005 KERRY (SP)
Next in basin 2005 RAYMOND (SI)
Next storm 2005 JUDY (SP)

top of page IBTrACS Data: File Access

Image of storm

top of page Plots:

Map of storm track will not appear if FTP is down
Time series of cyclone Maximum Sustained Wind will not appear if FTP is down
Time series of cyclone Minimum Central Pressure will not appear if FTP is down

top of page Track Data:Position

jtwc_sh reunion neumann
Date Lat Lon Lat Lon Lat Lon
2004-12-21 12:00:00 -5.9 94.6 -5.9 94.6
2004-12-21 18:00:00 -6.4 93.6 -6.4 93.6
2004-12-22 00:00:00 -6.7 92.6 -6.7 92.6
2004-12-22 06:00:00 -7.4 91.5 -6.4 90.7 -7.4 91.5
2004-12-22 12:00:00 -7.7 90.2 -6.8 89.2 -7.7 90.2
2004-12-22 18:00:00 -7.9 88.6 -7.1 88.4 -7.9 88.6
2004-12-23 00:00:00 -7.9 87.6 -7.6 87.7 -7.9 87.6
2004-12-23 06:00:00 -8.1 86.9 -8.4 87.0 -8.1 86.9
2004-12-23 12:00:00 -8.8 86.5 -9.0 86.6 -8.8 86.5
2004-12-23 18:00:00 -9.6 86.1 -9.5 86.2 -9.6 86.1
2004-12-24 00:00:00 -10.1 85.5 -10.3 85.4 -10.1 85.5
2004-12-24 06:00:00 -10.7 84.6 -10.9 84.3 -10.7 84.6
2004-12-24 12:00:00 -11.4 83.9 -11.3 83.8 -11.4 83.9
2004-12-24 18:00:00 -11.6 83.2 -11.8 83.2 -11.6 83.2
2004-12-25 00:00:00 -12.3 82.5 -12.4 82.5 -12.3 82.5
2004-12-25 06:00:00 -12.9 81.9 -13.0 81.9 -12.9 81.9
2004-12-25 12:00:00 -13.7 81.3 -13.8 81.2 -13.7 81.3
2004-12-25 18:00:00 -14.4 80.6 -14.4 80.6 -14.4 80.6
2004-12-26 00:00:00 -15.1 80.1 -15.2 80.0 -15.1 80.1
2004-12-26 06:00:00 -15.6 79.8 -15.7 79.9 -15.6 79.8
2004-12-26 12:00:00 -16.4 79.6 -16.4 79.6 -16.4 79.6
2004-12-26 18:00:00 -16.9 79.1 -17.0 79.2 -16.9 79.1
2004-12-27 00:00:00 -17.4 78.9 -17.5 78.7 -17.4 78.9
2004-12-27 06:00:00 -17.9 78.3 -17.8 78.3 -17.9 78.3
2004-12-27 12:00:00 -18.4 77.9 -18.0 77.7 -18.4 77.9
jtwc_sh reunion neumann
2004-12-27 18:00:00 -18.8 77.4 -18.4 77.0 -18.8 77.4
2004-12-28 00:00:00 -18.9 76.3 -18.8 76.2 -18.9 76.3
2004-12-28 06:00:00 -19.3 75.3 -19.1 75.3 -19.3 75.3
2004-12-28 12:00:00 -19.8 74.5 -19.6 74.4 -19.8 74.5
2004-12-28 18:00:00 -20.1 73.6 -20.1 73.6 -20.1 73.6
2004-12-29 00:00:00 -20.9 72.8 -20.8 72.8 -20.9 72.8
2004-12-29 06:00:00 -21.4 72.2 -21.5 72.1 -21.4 72.2
2004-12-29 12:00:00 -22.0 71.5 -22.1 71.7 -22.0 71.5
2004-12-29 18:00:00 -22.7 71.3 -22.9 71.4 -22.7 71.3
2004-12-30 00:00:00 -23.6 71.1 -23.7 71.1 -23.6 71.1
2004-12-30 06:00:00 -24.1 70.8 -24.1 70.8 -24.1 70.8
2004-12-30 12:00:00 -24.5 70.6 -24.2 70.7 -24.5 70.6
2004-12-30 18:00:00 -24.7 70.3 -24.6 70.5 -24.7 70.3
2004-12-31 00:00:00 -24.8 70.1 -24.9 70.1 -24.8 70.1
2004-12-31 06:00:00 -25.0 69.9 -25.1 69.8 -25.0 69.9
2004-12-31 12:00:00 -25.4 69.5 -25.3 69.3 -25.4 69.5
2004-12-31 18:00:00 -25.8 69.0 -25.7 68.7 -25.8 69.0
2005-01-01 00:00:00 -26.3 68.2 -26.6 68.5 -26.3 68.2
2005-01-01 06:00:00 -27.0 67.8 -27.1 67.9 -27.0 67.8
2005-01-01 12:00:00 -28.0 67.7 -28.1 67.9 -28.0 67.7
2005-01-01 18:00:00 -28.9 67.8 -29.0 67.9 -28.9 67.8
2005-01-02 00:00:00 -29.9 67.7
2005-01-02 06:00:00 -30.5 67.5
2005-01-02 12:00:00 -31.0 67.5
jtwc_sh reunion neumann
2005-01-02 18:00:00 -31.4 68.0
2005-01-03 00:00:00 -32.1 68.9
2005-01-03 06:00:00 -32.9 70.1
2005-01-03 12:00:00 -33.5 71.5
2005-01-03 18:00:00 -34.2 73.5

top of pageTrack Data:Intensity

jtwc_sh reunion neumann
Date Wind Pres Wind Pres Wind Pres
2004-12-21 12:00:00 15. 1006. 15.
2004-12-21 18:00:00 15. 1006. 15.
2004-12-22 00:00:00 15. 1006. 15.
2004-12-22 06:00:00 15. 1006. 20. 1004. 15.
2004-12-22 12:00:00 20. 1004. 25. 1002. 20.
2004-12-22 18:00:00 25. 1002. 25. 1001. 25.
2004-12-23 00:00:00 30. 1000. 25. 1000. 30.
2004-12-23 06:00:00 30. 1000. 27. 999. 30.
2004-12-23 12:00:00 30. 1000. 30. 998. 30.
2004-12-23 18:00:00 35. 997. 30. 997. 35.
2004-12-24 00:00:00 35. 997. 35. 995. 35.
2004-12-24 06:00:00 45. 991. 43. 990. 45.
2004-12-24 12:00:00 55. 984. 50. 985. 55.
2004-12-24 18:00:00 55. 984. 55. 980. 55.
2004-12-25 00:00:00 65. 976. 60. 975. 65.
2004-12-25 06:00:00 75. 967. 70. 965. 75.
2004-12-25 12:00:00 90. 954. 80. 955. 90.
2004-12-25 18:00:00 90. 954. 80. 955. 90.
2004-12-26 00:00:00 90. 954. 80. 955. 90.
2004-12-26 06:00:00 90. 954. 80. 955. 90.
2004-12-26 12:00:00 100. 944. 85. 950. 100.
2004-12-26 18:00:00 100. 944. 85. 950. 100.
2004-12-27 00:00:00 105. 944. 85. 950. 105.
2004-12-27 06:00:00 95. 949. 80. 955. 95.
2004-12-27 12:00:00 90. 954. 80. 955. 90.
jtwc_sh reunion neumann
2004-12-27 18:00:00 80. 963. 65. 970. 80.
2004-12-28 00:00:00 60. 980. 50. 985. 60.
2004-12-28 06:00:00 45. 991. 50. 985. 45.
2004-12-28 12:00:00 40. 994. 50. 985. 40.
2004-12-28 18:00:00 35. 997. 45. 987. 35.
2004-12-29 00:00:00 30. 1000. 45. 987. 30.
2004-12-29 06:00:00 30. 1000. 45. 988. 30.
2004-12-29 12:00:00 30. 1000. 45. 987. 30.
2004-12-29 18:00:00 30. 1001. 50. 985. 30.
2004-12-30 00:00:00 30. 1000. 50. 985. 30.
2004-12-30 06:00:00 30. 1000. 50. 985. 30.
2004-12-30 12:00:00 30. 1000. 55. 983. 30.
2004-12-30 18:00:00 30. 1000. 55. 983. 30.
2004-12-31 00:00:00 30. 1000. 50. 985. 30.
2004-12-31 06:00:00 30. 1000. 45. 987. 30.
2004-12-31 12:00:00 30. 1000. 45. 987. 30.
2004-12-31 18:00:00 30. 1000. 43. 988. 30.
2005-01-01 00:00:00 30. 1000. 40. 990. 30.
2005-01-01 06:00:00 30. 1000. 40. 992. 30.
2005-01-01 12:00:00 30. 1000. 40. 992. 30.
2005-01-01 18:00:00 25. 1002. 40. 994. 25.
2005-01-02 00:00:00 40. 994.
2005-01-02 06:00:00 37. 995.
2005-01-02 12:00:00 35. 998.
jtwc_sh reunion neumann
2005-01-02 18:00:00 33. 1000.
2005-01-03 00:00:00 30. 1003.
2005-01-03 06:00:00 30. 1005.
2005-01-03 12:00:00 27. 1006.
2005-01-03 18:00:00 25. 1008.

top of page Links to source data

Source Source file Format
jtwc_sh bsh062005.txt ATCF
reunion Best-Tracks-NewWMOFormat.txt:Line=634:CHAMBO WMO (old format)
neumann tracks.sh:Storm=1308:Chambo:BSH062005:JTWC HURDAT